Northern & Central Napa County

33 Stations

15 Minute Data | America/Los_Angeles
as of 9/6/26 7:29 AM PDT
Station Date Time Temp (°F) RH (%) Dew Pt (°F) Wind Spd (mph) Wind Dir (°) Wind Gust (mph) Latest Rain (In) Daily Rain (In) Daily Max Temp (°F) Daily Min Temp (°F)
Tenma (North Calistoga) 9/6/26 0715 43.8   0.6 - - - - - 0.00 0.00 48.6   2.4 43.0   1.1
Calistoga-Solari 9/6/26 0715 42.7   1.0 97   1 41.8   1.2 0.4   0.2 NW | 318 1.7   0.2 0.00 0.00 48.7   3.3 41.3   1.9
Calistoga-North 9/6/26 0715 43.4   2.4 97   2 42.5   2.9 - - - 0.00 0.00 48.3   2.5 42.6   2.5
Twomey Calistoga 9/6/26 0715 38.2   2.0 96   1 37.1   1.8 0.3   0.1 NW | 306 1.2   0.2 0.00 0.00 44.7   8.5 36.5   3.2
Paloma 9/6/26 0715 40.9   0.3 96   1 39.9   0.0 2.5   1.7 SSW | 202 3.2   2.0 0.00 0.00 46.9   4.2 38.5   2.7
Calistoga (Ranch 78) 9/6/26 0715 40.9   2.9 91   3 38.6   3.7 0.0   0.7 N | 0 0.0   1.5 0.00 0.00 47.2   6.2 39.0   2.5
Diamond Mtn (Schramsberg) 9/6/26 0715 51.9   0.1 79   10 45.7   3.4 - - - 0.00 0.00 54.8   0.1 50.6   0.4
Diamond Mtn (McEachran) 9/6/26 0715 48.4   1.3 86   8 44.6   3.6 - - - - - 53.6   1.4 48.2   1.1
Deer Park 9/6/26 0715 50.4   0.3 86   5 46.4   1.3 1.0   0.4 N | 2 1.5   0.7 0.00 0.00 54.6   3.2 49.9   0.2
St. Helena-North 9/6/26 0715 44.7   1.9 89   1 41.6   2.2 0.7   0.8 NNW | 328 1.8   1.1 0.00 0.00 52.1   1.3 44.2   2.0
St. Helena (NVV Office) 9/6/26 0715 45.0   1.8 - - 0.1   0.1 ENE | 60 0.9   0.1 0.00 0.00 52.9   3.3 44.8   1.5
Tiara Fria (East St. Helena) 9/6/26 0715 43.3   0.9 89   1 40.2   1.2 0.3   0.3 N | 350 1.4   0.7 0.00 0.00 49.7   1.2 42.4   0.8
Prisoner Winery 9/6/26 0715 43.0   1.6 94   3 41.4   2.3 0.4   0.1 NW | 319 1.5   0.5 0.00 0.00 49.3   0.9 42.9   1.1
Rutherford Hill Estate 9/6/26 0715 48.8   1.2 100   6 48.8   0.6 0.5   1.7 NE | 56 1.3   2.4 0.00 0.00 53.8   0.5 48.6   1.1
Rutherford-North (Mee Ln) 9/6/26 0715 42.3   1.1 93   1 40.4   1.2 0.3   0.5 WNW | 285 1.8   0.0 0.00 0.00 47.9   0.9 40.8   0.7
Rutherford (STS) 9/6/26 0715 42.6   3.0 91   1 40.2   2.6 0.5   0.1 W | 276 1.8   0.1 0.00 0.00 48.9   0.6 40.3   0.8
Silver Oak OV 9/6/26 0715 41.5   1.0 93   1 39.6   1.2 0.5   0.5 SSW | 201 1.0   1.0 0.00 0.00 51.6   3.2 40.4   1.3
Oakville-NE (Ranch 88) 9/6/26 0715 39.9   1.0 85   1 35.8   1.4 0.0   0.0 N | 0 0.0   0.0 0.00 0.00 49.2   2.4 39.2   1.1
Crossroads Ranch 9/6/26 0715 42.1   0.8 91   1 39.6   1.2 0.9   0.6 W | 259 2.0   0.6 0.00 0.00 51.7   3.4 41.0   1.1
Oakville 9/6/26 0715 41.4   1.3 90   2 38.6   1.8 0.0   0.8 N | 0 0.0   1.3 0.00 0.00 50.7   2.8 40.8   1.3
To Kalon Remote (TKKE) 9/6/26 0715 43.4   1.0 - - - - - - - 48.9   0.4 42.1   0.9
To Kalon 9/6/26 0715 44.2   1.5 95   0 42.8   1.5 0.0   0.6 N | 0 0.0   1.5 0.00 0.00 49.2   0.5 42.5   1.2
To Kalon Remote (TKN5) 9/6/26 0715 43.4   1.4 - - - - - - - 50.7   0.8 42.3   0.9
Jump Rock 9/6/26 0715 43.0   1.8 97   2 42.1   1.2 1.3   1.0 ENE | 73 2.6   0.6 0.00 0.00 47.1   1.4 41.2   0.4
State Lane Ranch 9/6/26 0715 40.9   0.7 97   1 40.1   1.0 0.3   0.0 SSW | 208 0.9   0.2 0.00 0.00 50.1   2.2 40.8   0.1
Yountville (Ranch 67) 9/6/26 0715 41.6   0.8 90   1 38.9   1.2 0.4   0.3 N | 10 1.5   0.5 0.00 0.00 50.3   2.8 41.2   0.2
Borreo (Soda Canyon) 9/6/26 0645 44.1   2.0 95   1 42.8   2.3 0.8   0.2 NNW | 327 1.5   1.0 0.00 0.00 49.2   0.0 44.0   1.7
Wappo Hill Floor 9/6/26 0715 41.1   1.1 100   0 41.1   1.1 0.0   0.0 N | 352 0.6   0.2 0.00 0.00 52.8   4.8 41.0   0.8
Wappo Hill 9/6/26 0715 47.7   1.5 94   0 46.2   1.6 0.1   3.7 W | 270 0.7   4.9 0.00 0.00 56.1   2.1 46.8   0.1
Stags Leap Dist (Chimney Rock) 9/6/26 0715 41.6   1.0 96   1 40.7   1.3 0.1   0.5 ESE | 103 0.9   0.7 0.00 0.00 51.2   3.4 41.6   0.1
Stags Leap Dist (Silverado Vineyards) 9/6/26 0715 42.6   0.3 92   0 40.6   0.4 0.1   0.1 NNW | 334 0.6   0.6 0.00 0.00 50.9   2.2 42.4   0.0
Yountville-SE (Ranch 85) 9/6/26 0715 43.2   0.8 94   2 41.7   1.3 0.3   0.3 NNW | 327 1.5   1.5 0.00 0.00 52.4   2.7 42.2   1.0
Yountville-South (Ranch 87) 9/6/26 0715 43.0   2.2 96   4 42.0   3.1 0.1   1.5 NNE | 25 0.8   1.3 0.00 0.00 50.6   1.5 42.2   0.6
Max     51.9 100 48.8 2.5 - 3.2 0.00 0.00 56.1 50.6
Avg     43.5 93 41.4 0.4 - 1.2 0.00 - - -
Min     38.2 79 35.8 0.0 - 0.0 0.00 0.00 44.7 36.5